Pagina principale
METAR-TAF:

METAR-TAF

Aeroporti :

Mönchengladbach, Germania

latitudine: 51-13-49N, longitudine: 006-30-16E, altezza: 38 m

Osservazione

Il bollettino è stato emesso 21 minuti fa, alle 09:50 UTC
Vento 6 kt da ovest, variando fra sud/sud-ovest e nord-ovest
Temperature 15°C
Umidità 59%
Pressione 1007 hPa
Visibilità 10 km o più
Nubi sparse ad un'altezza di 4000 ft

METAR: EDLN 070950Z 26006KT 200V320 9999 SCT040 15/07 Q1007

Ora: 12:11 (10:11 UTC)

Previsione

Il bollettino è stato emesso 2 ore e 11 minuti fa, alle 08:00 UTC
Previsione valida dal 07 alle 09 UTC al 07 alle 18 UTC
Vento 9 kt da ovest
Visibilità 10 km o più
Nubi sparse ad un'altezza di 4000 ft
Evoluzione graduale
dal 07 alle 15 UTC al 07 alle 18 UTC
Vento 4 kt da ovest/nord-ovest

TAF: EDLN 070800Z 0709/0718 26009KT 9999 SCT040 BECMG 0715/0718 30004KT

Osservazioni e previsioni meteorologiche di più di 4000 aeroporti (messaggi METAR e TAF).

Le stazioni disponibili sono rappresentate dai dischi gialli e rossi sulla carta.

Puntare il mouse per vedere il nome della stazione.

Clicca sopra per visualizzare le osservazioni e previsioni meteorologiche.

Per cambiare la mappa : fare clic sui pulsanti verdi con una croce nera per ingrandire, il pulsante verde con un trattino per diminuire, o sulla freccia verde per le mappe adiacenti.


METAR-TAF: